Time;durP1;ratioP1;P1;durP2;ratioP2;P2;SDS_P1;SDS_P2;PMS_P1;PMS_P2;Temp;Humidity;BMP_temperature;BMP_pressure;BME280_temperature;BME280_humidity;BME280_pressure;Samples;Min_cycle;Max_cycle;Signal;HPM_P1;HPM_P2
2022/03/02 00:02:13;;;;;;;16.00;10.80;;;8.00;55.60;;;;;;4983351;28;20108;-51
2022/03/02 00:04:39;;;;;;;13.77;10.52;;;7.90;55.60;;;;;;5011430;28;20061;-49
2022/03/02 00:07:06;;;;;;;16.80;11.05;;;7.80;55.50;;;;;;5010479;28;20050;-47
2022/03/02 00:09:33;;;;;;;12.93;9.75;;;7.80;55.60;;;;;;4990700;28;20034;-48
2022/03/02 00:12:00;;;;;;;14.38;11.18;;;7.70;55.60;;;;;;5001327;28;20100;-50
2022/03/02 00:14:27;;;;;;;13.20;9.93;;;7.60;55.60;;;;;;4994229;28;20078;-48
2022/03/02 00:16:53;;;;;;;15.73;10.02;;;7.60;55.60;;;;;;4993461;28;20125;-48
2022/03/02 00:19:20;;;;;;;15.55;10.48;;;7.50;55.70;;;;;;4988244;28;20043;-48
2022/03/02 00:21:47;;;;;;;14.43;10.77;;;7.40;55.70;;;;;;4999453;28;20120;-48
2022/03/02 00:24:14;;;;;;;15.15;10.00;;;7.30;55.70;;;;;;4999583;28;20061;-49
2022/03/02 00:26:41;;;;;;;14.75;9.60;;;7.30;55.80;;;;;;4990430;28;20078;-50
2022/03/02 00:29:07;;;;;;;13.48;9.80;;;7.20;55.90;;;;;;4988625;28;20453;-48
2022/03/02 00:31:35;;;;;;;16.20;10.73;;;7.10;55.90;;;;;;4982598;28;20050;-48
2022/03/02 00:34:02;;;;;;;14.75;10.15;;;7.00;56.00;;;;;;5009381;28;20038;-48
2022/03/02 00:36:29;;;;;;;14.02;9.55;;;7.00;56.20;;;;;;4987042;28;20465;-48
2022/03/02 00:38:58;;;;;;;12.23;9.50;;;6.90;56.30;;;;;;4990982;28;20549;-51
2022/03/02 00:41:25;;;;;;;14.73;8.82;;;6.90;56.40;;;;;;4988033;28;20096;-53
2022/03/02 00:43:52;;;;;;;15.50;9.98;;;6.80;56.40;;;;;;5011997;28;20092;-48
2022/03/02 00:46:20;;;;;;;13.25;9.65;;;6.70;56.50;;;;;;4996753;28;20046;-51
2022/03/02 00:48:47;;;;;;;10.30;7.95;;;6.70;56.70;;;;;;4998439;28;20046;-49
2022/03/02 00:51:14;;;;;;;14.18;9.35;;;6.60;56.70;;;;;;5034002;22;20125;-47
2022/03/02 00:53:41;;;;;;;15.68;9.65;;;6.60;56.80;;;;;;5019718;28;20045;-43
2022/03/02 00:56:10;;;;;;;12.57;8.88;;;6.50;56.90;;;;;;5005367;28;20034;-49
2022/03/02 00:58:37;;;;;;;13.35;10.10;;;6.50;57.10;;;;;;5006675;28;20438;-43
2022/03/02 01:01:04;;;;;;;14.23;9.73;;;6.50;57.30;;;;;;5007295;28;20046;-47
2022/03/02 01:03:31;;;;;;;15.60;10.10;;;6.40;57.40;;;;;;5010611;28;20053;-46
2022/03/02 01:05:58;;;;;;;14.95;9.90;;;6.40;57.60;;;;;;5010135;28;20151;-46
2022/03/02 01:08:24;;;;;;;13.63;8.98;;;6.40;57.70;;;;;;5011086;28;20077;-43
2022/03/02 01:10:51;;;;;;;13.55;9.50;;;6.40;57.80;;;;;;4993214;28;20080;-47
2022/03/02 01:13:18;;;;;;;16.33;10.15;;;6.40;57.90;;;;;;5010528;28;20075;-47
2022/03/02 01:15:44;;;;;;;12.07;8.55;;;6.40;57.90;;;;;;5009340;28;20088;-47
2022/03/02 01:18:11;;;;;;;17.10;10.07;;;6.40;58.00;;;;;;4993504;28;20144;-44
2022/03/02 01:20:38;;;;;;;13.43;9.35;;;6.40;57.90;;;;;;5013135;28;20069;-47
2022/03/02 01:23:05;;;;;;;13.98;9.88;;;6.30;57.80;;;;;;5029769;28;20076;-47
2022/03/02 01:25:32;;;;;;;14.13;9.20;;;6.30;57.70;;;;;;5029584;28;20041;-46
2022/03/02 01:27:58;;;;;;;14.52;9.32;;;6.30;57.60;;;;;;5030496;28;20126;-44
2022/03/02 01:30:25;;;;;;;16.15;10.30;;;6.20;57.40;;;;;;4992291;28;20551;-50
2022/03/02 01:32:52;;;;;;;14.98;10.18;;;6.20;57.40;;;;;;5010199;28;20042;-44
2022/03/02 01:35:19;;;;;;;14.90;9.48;;;6.20;57.30;;;;;;5027824;28;20046;-44
2022/03/02 01:37:45;;;;;;;12.75;8.80;;;6.20;57.30;;;;;;5023621;28;20053;-46
2022/03/02 01:40:13;;;;;;;15.00;9.70;;;6.10;57.30;;;;;;5009872;28;20154;-48
2022/03/02 01:42:41;;;;;;;11.50;8.57;;;6.00;57.30;;;;;;5009932;28;20100;-50
2022/03/02 01:45:10;;;;;;;13.57;9.40;;;6.00;57.40;;;;;;5009222;28;20603;-50
2022/03/02 01:47:37;;;;;;;12.98;8.52;;;5.90;57.50;;;;;;5010210;28;20173;-47
2022/03/02 01:50:07;;;;;;;13.90;9.18;;;5.90;57.40;;;;;;5009577;28;20066;-45
2022/03/02 01:52:34;;;;;;;14.43;9.57;;;5.80;57.50;;;;;;5009688;28;20092;-44
2022/03/02 01:55:03;;;;;;;13.40;9.05;;;5.80;57.50;;;;;;5010508;28;20432;-53
2022/03/02 01:57:30;;;;;;;15.07;8.93;;;5.80;57.60;;;;;;5009158;28;20116;-45
2022/03/02 01:59:57;;;;;;;14.15;10.55;;;5.70;57.70;;;;;;5009532;28;20046;-44
2022/03/02 02:02:24;;;;;;;13.35;9.45;;;5.70;57.70;;;;;;5009531;28;20096;-47
2022/03/02 02:04:53;;;;;;;14.93;10.02;;;5.60;57.70;;;;;;5010367;28;20049;-44
2022/03/02 02:07:22;;;;;;;17.10;10.65;;;5.60;57.80;;;;;;5009431;28;20121;-47
2022/03/02 02:09:49;;;;;;;17.40;9.75;;;5.50;57.80;;;;;;5009898;28;20037;-45
2022/03/02 02:12:19;;;;;;;15.95;10.27;;;5.50;57.80;;;;;;5009379;28;20054;-48
2022/03/02 02:14:45;;;;;;;14.52;9.57;;;5.70;58.10;;;;;;5009056;28;20097;-46
2022/03/02 02:17:12;;;;;;;14.55;9.77;;;5.40;57.80;;;;;;5009300;28;20041;-44
2022/03/02 02:19:39;;;;;;;14.65;9.88;;;5.40;58.00;;;;;;5010385;28;20108;-47
2022/03/02 02:22:06;;;;;;;13.70;9.25;;;5.40;58.00;;;;;;5009199;28;20075;-44
2022/03/02 02:24:33;;;;;;;13.55;9.18;;;5.30;58.00;;;;;;5009031;28;20050;-47
2022/03/02 02:27:01;;;;;;;18.08;9.80;;;5.30;58.00;;;;;;5008837;28;20081;-46
2022/03/02 02:29:29;;;;;;;13.95;9.52;;;5.30;58.10;;;;;;5021062;28;20041;-50
2022/03/02 02:31:57;;;;;;;14.88;10.55;;;5.20;58.10;;;;;;5028818;28;20057;-48
2022/03/02 02:34:24;;;;;;;17.63;10.55;;;5.20;58.10;;;;;;5032087;28;20071;-45
2022/03/02 02:36:53;;;;;;;13.13;9.20;;;5.20;58.20;;;;;;5035274;28;20079;-47
2022/03/02 02:39:23;;;;;;;16.45;10.07;;;5.20;58.30;;;;;;5016852;28;20509;-43
2022/03/02 02:41:52;;;;;;;13.13;8.85;;;5.10;58.20;;;;;;5015659;28;20038;-43
2022/03/02 02:44:19;;;;;;;15.43;9.73;;;5.10;58.30;;;;;;5017077;28;20497;-46
2022/03/02 02:46:46;;;;;;;14.82;9.48;;;5.10;58.30;;;;;;5015715;28;20080;-45
2022/03/02 02:49:13;;;;;;;15.27;9.52;;;5.10;58.40;;;;;;5015737;28;20036;-45
2022/03/02 02:51:40;;;;;;;14.18;9.25;;;5.10;58.50;;;;;;5014758;28;20501;-48
2022/03/02 02:54:06;;;;;;;13.27;8.82;;;5.00;58.40;;;;;;5015377;28;20121;-44
2022/03/02 02:56:35;;;;;;;13.77;8.77;;;5.00;58.50;;;;;;5016298;28;20056;-44
2022/03/02 02:59:03;;;;;;;12.68;9.05;;;5.00;58.50;;;;;;5015590;28;20050;-48
2022/03/02 03:01:29;;;;;;;14.05;8.75;;;5.00;58.70;;;;;;5017086;28;20468;-45
2022/03/02 03:03:56;;;;;;;13.68;9.52;;;5.00;58.70;;;;;;5015952;28;20414;-48
2022/03/02 03:06:23;;;;;;;17.05;9.90;;;5.00;58.80;;;;;;5014959;28;20103;-44
2022/03/02 03:08:50;;;;;;;12.10;7.88;;;5.00;58.90;;;;;;5014856;28;20049;-45
2022/03/02 03:11:17;;;;;;;12.88;9.40;;;4.90;58.90;;;;;;5016533;28;20099;-44
2022/03/02 03:13:44;;;;;;;13.52;9.45;;;4.90;59.00;;;;;;5015247;28;20512;-44
2022/03/02 03:16:11;;;;;;;13.07;8.82;;;4.90;59.00;;;;;;5016414;28;20493;-45
2022/03/02 03:18:37;;;;;;;15.98;9.30;;;4.90;59.10;;;;;;5014265;28;20073;-51
2022/03/02 03:21:04;;;;;;;14.18;8.85;;;5.00;59.10;;;;;;5015390;28;20100;-44
2022/03/02 03:23:31;;;;;;;14.48;8.65;;;4.90;59.10;;;;;;5015028;28;20402;-44
2022/03/02 03:25:58;;;;;;;12.13;8.65;;;4.90;59.20;;;;;;5016316;28;20050;-44
2022/03/02 03:28:24;;;;;;;13.65;9.10;;;4.90;59.20;;;;;;5018267;28;20044;-48
2022/03/02 03:30:51;;;;;;;16.85;9.18;;;5.00;59.30;;;;;;5035286;28;20076;-47
2022/03/02 03:33:18;;;;;;;13.70;9.35;;;5.00;59.30;;;;;;5034359;28;20083;-44
2022/03/02 03:35:45;;;;;;;14.57;9.63;;;5.00;59.30;;;;;;5035699;28;20468;-44
2022/03/02 03:38:12;;;;;;;13.68;8.90;;;5.00;59.40;;;;;;5024703;28;20050;-44
2022/03/02 03:40:39;;;;;;;14.55;8.68;;;5.00;59.40;;;;;;5015939;28;20053;-44
2022/03/02 03:43:06;;;;;;;11.80;8.88;;;5.00;59.40;;;;;;5014849;28;20046;-48
2022/03/02 03:45:33;;;;;;;13.70;8.75;;;5.00;59.40;;;;;;5015304;28;20113;-44
2022/03/02 03:48:00;;;;;;;12.30;8.80;;;5.00;59.50;;;;;;5012319;28;20132;-49
2022/03/02 03:50:27;;;;;;;13.82;8.07;;;5.00;59.50;;;;;;5016646;28;20049;-45
2022/03/02 03:52:54;;;;;;;11.57;7.95;;;5.00;59.50;;;;;;5013336;28;20176;-45
2022/03/02 03:55:21;;;;;;;14.60;9.30;;;5.00;59.50;;;;;;5011240;28;20087;-44
2022/03/02 03:57:48;;;;;;;14.15;9.18;;;5.10;59.50;;;;;;5022007;28;20163;-46
2022/03/02 04:00:17;;;;;;;15.93;8.93;;;5.10;59.60;;;;;;5022214;28;20101;-49
2022/03/02 04:02:45;;;;;;;13.55;8.93;;;5.10;59.60;;;;;;5020128;28;20045;-46
2022/03/02 04:05:12;;;;;;;13.13;8.55;;;5.10;59.50;;;;;;5021581;28;20112;-48
2022/03/02 04:07:45;;;;;;;12.77;7.80;;;5.10;59.60;;;;;;5019537;28;20046;-48
2022/03/02 04:10:13;;;;;;;12.02;8.05;;;5.10;59.60;;;;;;5011926;28;20502;-46
2022/03/02 04:12:40;;;;;;;13.40;9.07;;;5.10;59.60;;;;;;5010867;28;20108;-48
2022/03/02 04:15:07;;;;;;;13.85;8.98;;;5.10;59.70;;;;;;5011778;28;20124;-46
2022/03/02 04:17:34;;;;;;;12.18;8.23;;;5.10;59.80;;;;;;4995252;28;20115;-50
2022/03/02 04:20:02;;;;;;;14.50;8.23;;;5.10;59.90;;;;;;4994366;28;20112;-48
2022/03/02 04:22:29;;;;;;;10.45;7.82;;;5.10;60.00;;;;;;5010752;28;20409;-49
2022/03/02 04:24:58;;;;;;;13.70;8.40;;;5.10;60.00;;;;;;5012086;28;20042;-47
2022/03/02 04:27:28;;;;;;;12.70;8.32;;;5.10;60.00;;;;;;5011397;28;20038;-48
2022/03/02 04:29:55;;;;;;;14.40;8.95;;;5.10;60.00;;;;;;5027003;28;20045;-50
2022/03/02 04:32:22;;;;;;;11.57;8.02;;;5.10;60.70;;;;;;5030386;28;20649;-48
2022/03/02 04:34:48;;;;;;;13.98;9.23;;;5.20;60.10;;;;;;5031154;28;20046;-47
2022/03/02 04:37:15;;;;;;;14.35;9.02;;;5.20;60.10;;;;;;5028236;28;20118;-46
2022/03/02 04:39:43;;;;;;;13.55;8.25;;;5.20;60.20;;;;;;5011465;28;20112;-47
2022/03/02 04:42:12;;;;;;;12.52;8.63;;;5.20;60.20;;;;;;5011477;28;20050;-48
2022/03/02 04:44:38;;;;;;;11.57;8.13;;;5.20;60.20;;;;;;5011169;28;20752;-46
2022/03/02 04:47:05;;;;;;;11.90;8.38;;;5.20;60.20;;;;;;5010440;28;20046;-48
2022/03/02 04:49:32;;;;;;;12.75;7.93;;;5.20;60.20;;;;;;5011340;28;20450;-46
2022/03/02 04:51:59;;;;;;;12.40;8.82;;;5.20;60.20;;;;;;5011919;28;20488;-50
2022/03/02 04:57:12;;;;;;;10.93;8.13;;;5.20;60.30;;;;;;5009726;28;20049;-51
2022/03/02 04:59:39;;;;;;;14.35;8.80;;;5.20;60.30;;;;;;5011149;28;20100;-50
2022/03/02 05:02:06;;;;;;;12.20;8.02;;;5.20;60.30;;;;;;5011177;28;20465;-47
2022/03/02 05:04:33;;;;;;;14.88;8.95;;;5.20;60.30;;;;;;5011240;28;20038;-46
2022/03/02 05:07:00;;;;;;;13.73;9.00;;;5.20;60.40;;;;;;5010564;28;20042;-51
2022/03/02 05:09:26;;;;;;;13.23;8.68;;;5.20;60.40;;;;;;5010576;28;20041;-47
2022/03/02 05:11:54;;;;;;;12.45;8.30;;;5.20;60.50;;;;;;5011157;28;20575;-49
2022/03/02 05:14:21;;;;;;;11.85;8.20;;;5.20;60.50;;;;;;5010491;28;20042;-47
2022/03/02 05:16:48;;;;;;;12.68;8.55;;;5.30;60.70;;;;;;5011457;28;20053;-48
2022/03/02 05:19:14;;;;;;;10.98;8.07;;;5.30;60.70;;;;;;5006561;28;20062;-46
2022/03/02 05:21:41;;;;;;;12.38;8.23;;;5.30;60.70;;;;;;5009210;28;20042;-50
2022/03/02 05:24:08;;;;;;;11.57;8.20;;;5.30;60.70;;;;;;5026120;28;20049;-49
2022/03/02 05:26:35;;;;;;;13.70;8.75;;;5.30;60.70;;;;;;5017892;28;20038;-46
2022/03/02 05:29:02;;;;;;;13.20;8.30;;;5.30;60.70;;;;;;5024523;28;20766;-51
2022/03/02 05:31:31;;;;;;;12.02;8.13;;;5.30;60.70;;;;;;5016609;28;20045;-50
2022/03/02 05:33:58;;;;;;;12.98;8.05;;;5.40;60.70;;;;;;5023595;28;20631;-49
2022/03/02 05:36:28;;;;;;;13.73;8.27;;;5.40;60.70;;;;;;5005100;28;20472;-46
2022/03/02 05:38:54;;;;;;;12.02;8.63;;;5.30;60.60;;;;;;5016603;28;20046;-49
2022/03/02 05:41:21;;;;;;;13.13;8.35;;;5.30;60.60;;;;;;5024551;28;20045;-47
2022/03/02 05:43:49;;;;;;;12.48;8.70;;;5.40;60.60;;;;;;5015552;28;20065;-52
2022/03/02 05:46:18;;;;;;;11.98;8.27;;;5.30;60.60;;;;;;5006552;28;20048;-48
2022/03/02 05:48:45;;;;;;;11.80;8.32;;;5.30;60.60;;;;;;5008152;28;20050;-49
2022/03/02 05:51:12;;;;;;;12.13;7.72;;;5.30;60.60;;;;;;5010818;28;20509;-46
2022/03/02 05:53:38;;;;;;;12.07;8.05;;;5.30;60.60;;;;;;5011655;28;20108;-46
2022/03/02 05:56:06;;;;;;;11.15;7.53;;;5.30;60.70;;;;;;5020616;28;20055;-50
2022/03/02 05:58:33;;;;;;;14.90;8.50;;;5.30;60.70;;;;;;5006899;28;20096;-52
2022/03/02 06:01:00;;;;;;;13.80;7.97;;;5.30;60.70;;;;;;5004936;28;20049;-51
2022/03/02 06:03:28;;;;;;;12.88;8.20;;;5.30;60.70;;;;;;5023453;28;20034;-51
2022/03/02 06:05:55;;;;;;;12.32;8.40;;;5.30;60.70;;;;;;5009630;28;20092;-50
2022/03/02 06:08:22;;;;;;;15.38;8.23;;;5.30;60.70;;;;;;5013693;28;20113;-48
2022/03/02 06:10:50;;;;;;;11.32;8.40;;;5.30;60.70;;;;;;5012013;28;20037;-48
2022/03/02 06:13:16;;;;;;;11.88;8.88;;;5.30;60.70;;;;;;5027970;28;20092;-50
2022/03/02 06:15:43;;;;;;;13.05;8.60;;;5.20;60.60;;;;;;5011604;28;20457;-48
2022/03/02 06:18:10;;;;;;;11.10;8.02;;;5.20;60.70;;;;;;5022504;28;20130;-48
2022/03/02 06:20:37;;;;;;;14.82;9.02;;;5.20;60.70;;;;;;5020426;28;20112;-49
2022/03/02 06:23:04;;;;;;;12.70;8.48;;;5.20;60.60;;;;;;5014233;28;20104;-50
2022/03/02 06:25:32;;;;;;;14.35;8.90;;;5.20;60.60;;;;;;5018659;28;20043;-48
2022/03/02 06:28:02;;;;;;;16.67;8.75;;;5.20;60.50;;;;;;5017096;28;20604;-52
2022/03/02 06:30:29;;;;;;;11.30;8.13;;;5.20;60.50;;;;;;5002223;28;20103;-49
2022/03/02 06:32:56;;;;;;;12.57;8.95;;;5.20;60.50;;;;;;5014794;28;20983;-50
2022/03/02 06:35:23;;;;;;;12.57;9.07;;;5.20;60.60;;;;;;5002751;28;20152;-50
2022/03/02 06:37:50;;;;;;;13.13;8.13;;;5.20;60.50;;;;;;5016553;28;20050;-50
2022/03/02 06:40:17;;;;;;;12.82;8.73;;;5.20;60.40;;;;;;5003842;28;20399;-50
2022/03/02 06:43:08;;;;;;;14.35;9.30;;;5.20;60.40;;;;;;5010502;28;20041;-48
2022/03/02 06:45:57;;;;;;;14.05;8.27;;;5.20;60.70;;;;;;5016254;28;20095;-51
2022/03/02 06:48:34;;;;;;;11.90;8.32;;;5.20;60.70;;;;;;5019710;28;20174;-48
2022/03/02 06:51:01;;;;;;;12.38;8.07;;;5.20;60.50;;;;;;5016795;28;20091;-49
2022/03/02 06:53:36;;;;;;;13.00;8.38;;;5.20;60.20;;;;;;5012699;28;20096;-48
2022/03/02 06:56:05;;;;;;;11.35;7.88;;;5.20;60.40;;;;;;5017829;28;20076;-52
2022/03/02 06:58:41;;;;;;;10.80;8.15;;;5.20;60.20;;;;;;5025797;28;20610;-48
2022/03/02 07:01:13;;;;;;;12.35;9.35;;;5.20;60.30;;;;;;5028228;28;20114;-49
2022/03/02 07:03:47;;;;;;;13.07;8.65;;;5.20;60.00;;;;;;5013159;28;20041;-52
2022/03/02 07:06:17;;;;;;;12.35;8.57;;;5.30;60.20;;;;;;5025696;28;20048;-50
2022/03/02 07:08:45;;;;;;;13.00;8.55;;;5.30;60.10;;;;;;5014581;28;20473;-52
2022/03/02 07:11:12;;;;;;;12.32;8.48;;;5.30;60.10;;;;;;5016498;28;20042;-48
2022/03/02 07:13:39;;;;;;;15.32;9.25;;;5.30;60.20;;;;;;5014246;28;20053;-49
2022/03/02 07:16:06;;;;;;;12.93;8.45;;;5.30;60.10;;;;;;5022218;28;20042;-50
2022/03/02 07:18:34;;;;;;;10.95;7.50;;;5.40;60.10;;;;;;5009932;28;20103;-49
2022/03/02 07:21:05;;;;;;;13.48;8.30;;;5.40;60.20;;;;;;5022424;28;20107;-48
2022/03/02 07:23:35;;;;;;;13.30;7.95;;;5.50;60.30;;;;;;5022239;28;20095;-48
2022/03/02 07:26:02;;;;;;;14.57;9.05;;;5.50;60.30;;;;;;5032170;28;20053;-50
2022/03/02 07:28:29;;;;;;;16.33;9.30;;;5.50;60.20;;;;;;5011481;28;20536;-49
2022/03/02 07:30:57;;;;;;;13.93;8.98;;;5.50;60.20;;;;;;5012429;28;20073;-50
2022/03/02 07:33:25;;;;;;;12.77;8.30;;;5.60;60.30;;;;;;5026768;28;20050;-50
2022/03/02 07:35:57;;;;;;;14.20;8.80;;;5.60;60.30;;;;;;5029304;28;20049;-48
2022/03/02 07:38:24;;;;;;;14.52;9.20;;;5.60;60.10;;;;;;5018854;28;20042;-49
2022/03/02 07:40:52;;;;;;;14.85;8.73;;;5.60;59.90;;;;;;5009499;28;20645;-49
2022/03/02 07:45:50;;;;;;;8.52;6.28;;;5.70;59.60;;;;;;4995225;28;20112;-51
2022/03/02 07:48:17;;;;;;;17.55;10.40;;;5.70;59.50;;;;;;4993556;28;20062;-55
2022/03/02 07:50:46;;;;;;;16.35;11.18;;;5.80;59.50;;;;;;5001802;28;20092;-51
2022/03/02 07:53:16;;;;;;;15.75;11.02;;;5.80;59.40;;;;;;5006504;28;20889;-53
2022/03/02 07:55:44;;;;;;;18.05;11.25;;;5.80;59.10;;;;;;5003400;28;20045;-54
2022/03/02 07:58:12;;;;;;;18.25;11.93;;;5.90;59.00;;;;;;5000062;28;20114;-54
2022/03/02 08:00:39;;;;;;;15.65;10.57;;;5.90;58.40;;;;;;4996296;28;20072;-55
2022/03/02 08:03:07;;;;;;;12.95;9.60;;;6.00;58.20;;;;;;5000530;28;20077;-55
2022/03/02 08:05:34;;;;;;;14.27;9.55;;;6.00;58.00;;;;;;4992085;28;20042;-54
2022/03/02 08:08:01;;;;;;;15.55;10.45;;;6.10;58.00;;;;;;4986295;28;20034;-52
2022/03/02 08:10:28;;;;;;;14.98;10.48;;;6.10;58.10;;;;;;4998462;28;20041;-55
2022/03/02 08:12:56;;;;;;;16.75;9.57;;;6.20;58.10;;;;;;5004311;28;20108;-52
2022/03/02 08:15:24;;;;;;;16.83;9.55;;;6.20;57.60;;;;;;4998719;28;20507;-54
2022/03/02 08:17:51;;;;;;;11.88;9.35;;;6.30;57.20;;;;;;5002397;28;20077;-53
2022/03/02 08:20:47;;;;;;;12.55;9.20;;;6.40;56.80;;;;;;4995139;28;20499;-55
2022/03/02 08:23:14;;;;;;;14.35;8.93;;;6.40;56.20;;;;;;5002767;28;20093;-52
2022/03/02 08:25:41;;;;;;;14.93;9.68;;;6.50;56.20;;;;;;4996044;28;20041;-55
2022/03/02 08:28:09;;;;;;;13.98;9.32;;;6.60;56.00;;;;;;4986469;28;20062;-55
2022/03/02 08:30:39;;;;;;;12.43;8.95;;;6.60;55.80;;;;;;4999939;28;20065;-55
2022/03/02 08:33:08;;;;;;;15.23;9.00;;;6.70;55.80;;;;;;5002180;28;20050;-52
2022/03/02 08:35:38;;;;;;;15.40;8.82;;;6.80;55.50;;;;;;4996387;28;20050;-54
2022/03/02 08:38:05;;;;;;;13.07;9.23;;;6.80;55.10;;;;;;4983909;28;20046;-55
2022/03/02 08:40:32;;;;;;;14.55;9.35;;;6.90;55.10;;;;;;4991868;28;20391;-56
2022/03/02 08:43:02;;;;;;;12.73;8.60;;;6.90;54.90;;;;;;5008702;28;20042;-55
2022/03/02 08:45:29;;;;;;;12.75;9.55;;;7.00;54.90;;;;;;4990277;28;20046;-56
2022/03/02 08:48:03;;;;;;;13.23;8.98;;;7.10;55.00;;;;;;5003503;28;20046;-54
2022/03/02 08:50:29;;;;;;;12.27;8.88;;;7.10;54.60;;;;;;4986999;28;20053;-55
2022/03/02 08:52:57;;;;;;;11.18;8.63;;;7.20;54.40;;;;;;4990898;28;20054;-54
2022/03/02 08:55:30;;;;;;;13.15;9.27;;;7.20;54.10;;;;;;4990522;28;20054;-53
2022/03/02 08:57:58;;;;;;;10.85;7.55;;;7.30;53.80;;;;;;4994503;28;20092;-54
2022/03/02 09:00:25;;;;;;;12.25;8.30;;;7.40;53.80;;;;;;4990685;28;20081;-55
2022/03/02 09:02:53;;;;;;;9.02;7.28;;;7.40;53.60;;;;;;4995805;28;20046;-55
2022/03/02 09:05:27;;;;;;;13.40;8.25;;;7.40;53.40;;;;;;4997317;28;20724;-52
2022/03/02 09:07:55;;;;;;;12.65;8.63;;;7.50;53.00;;;;;;5002169;28;20041;-56
2022/03/02 09:10:23;;;;;;;9.80;8.00;;;7.60;53.10;;;;;;4992267;28;20043;-53
2022/03/02 09:12:50;;;;;;;14.93;8.10;;;7.60;52.90;;;;;;4992811;28;20583;-56
2022/03/02 09:15:17;;;;;;;8.55;7.38;;;7.70;52.80;;;;;;4995623;28;20038;-54
2022/03/02 09:17:44;;;;;;;12.20;8.25;;;7.70;52.70;;;;;;4997325;28;20154;-52
2022/03/02 09:20:11;;;;;;;10.43;8.30;;;7.80;52.60;;;;;;4990956;28;20050;-55
2022/03/02 09:22:41;;;;;;;10.52;7.88;;;7.80;52.40;;;;;;4987575;28;20097;-56
2022/03/02 09:25:08;;;;;;;10.02;8.57;;;7.90;51.90;;;;;;4992241;28;20043;-56
2022/03/02 09:27:35;;;;;;;12.73;8.82;;;7.90;51.90;;;;;;4998560;28;20073;-54
2022/03/02 09:30:09;;;;;;;12.50;8.27;;;8.00;52.00;;;;;;4993777;28;20042;-53
2022/03/02 09:32:40;;;;;;;14.77;8.85;;;8.00;51.80;;;;;;4971733;28;20089;-55
2022/03/02 09:35:12;;;;;;;9.52;7.70;;;8.10;51.60;;;;;;4991752;28;20062;-55
2022/03/02 09:37:42;;;;;;;9.05;7.93;;;8.10;51.50;;;;;;4993611;28;20054;-53
2022/03/02 09:40:27;;;;;;;9.93;7.40;;;8.20;51.30;;;;;;4990991;28;20108;-55
2022/03/02 09:43:00;;;;;;;10.75;7.72;;;8.20;50.80;;;;;;4994300;28;20048;-57
2022/03/02 09:45:29;;;;;;;10.63;8.05;;;8.30;51.10;;;;;;4998707;28;20456;-55
2022/03/02 09:48:03;;;;;;;11.40;7.95;;;8.30;51.10;;;;;;4995098;28;20038;-55
2022/03/02 09:50:33;;;;;;;9.00;7.25;;;8.40;50.60;;;;;;4989966;28;20046;-57
2022/03/02 09:53:04;;;;;;;11.85;8.18;;;8.40;50.60;;;;;;4996225;28;20052;-54
2022/03/02 09:55:30;;;;;;;10.70;7.30;;;8.50;50.80;;;;;;5000416;28;20108;-54
2022/03/02 09:57:59;;;;;;;10.00;7.63;;;8.50;50.80;;;;;;5010229;28;20073;-56
2022/03/02 10:00:28;;;;;;;9.77;7.93;;;8.60;50.50;;;;;;4998324;28;20109;-55
2022/03/02 10:02:57;;;;;;;10.43;7.40;;;8.70;50.20;;;;;;4986312;28;20050;-54
2022/03/02 10:05:32;;;;;;;13.15;7.88;;;8.70;50.20;;;;;;4989358;28;20061;-55
2022/03/02 10:08:02;;;;;;;10.65;7.68;;;8.80;49.60;;;;;;4990146;28;20120;-51
2022/03/02 10:10:33;;;;;;;12.35;8.25;;;8.80;50.10;;;;;;4984916;28;20050;-54
2022/03/02 10:13:03;;;;;;;8.63;7.23;;;8.90;50.00;;;;;;4993458;28;20050;-55
2022/03/02 10:15:32;;;;;;;10.30;8.55;;;8.90;50.70;;;;;;4997783;28;20105;-52
2022/03/02 10:18:07;;;;;;;9.43;8.02;;;9.00;50.10;;;;;;4990060;28;20375;-55
2022/03/02 10:20:36;;;;;;;13.87;7.53;;;9.00;49.90;;;;;;4992255;28;20056;-51
2022/03/02 10:23:35;;;;;;;11.73;8.20;;;9.10;49.90;;;;;;5000869;28;20100;-54
2022/03/02 10:26:16;;;;;;;11.45;7.70;;;9.20;49.20;;;;;;4970377;28;20050;-55
2022/03/02 10:28:44;;;;;;;9.85;6.93;;;9.20;48.90;;;;;;4988588;28;20521;-53
2022/03/02 10:31:41;;;;;;;9.27;7.13;;;9.30;49.40;;;;;;4980327;28;20048;-52
2022/03/02 10:34:25;;;;;;;8.95;6.65;;;9.30;47.60;;;;;;4969572;28;20043;-55
2022/03/02 10:37:19;;;;;;;9.13;6.07;;;9.40;47.70;;;;;;4976890;28;20455;-55
2022/03/02 10:39:56;;;;;;;9.43;6.82;;;9.50;47.30;;;;;;4983268;28;20038;-55
2022/03/02 10:42:28;;;;;;;12.38;8.15;;;9.60;47.60;;;;;;4990111;28;20070;-56
2022/03/02 10:45:01;;;;;;;;;;;9.70;47.50;;;;;;5002977;28;20093;-55
2022/03/02 10:47:28;;;;;;;;;;;9.80;48.00;;;;;;5009492;28;19968;-57
2022/03/02 10:49:58;;;;;;;8.20;5.82;;;9.90;48.50;;;;;;4997806;28;20444;-55
2022/03/02 10:52:26;;;;;;;8.63;6.57;;;10.00;47.40;;;;;;4993377;28;20569;-57
2022/03/02 10:54:57;;;;;;;9.32;7.10;;;10.00;46.70;;;;;;5000227;28;20045;-57
2022/03/02 10:57:25;;;;;;;7.60;6.20;;;10.00;46.50;;;;;;4996030;28;20051;-54
2022/03/02 10:59:55;;;;;;;9.38;6.65;;;10.10;46.40;;;;;;4993852;28;20034;-55
2022/03/02 11:02:23;;;;;;;8.18;6.57;;;10.20;46.60;;;;;;4999228;28;20038;-56
2022/03/02 11:04:54;;;;;;;10.35;6.85;;;10.20;45.60;;;;;;4992754;28;20149;-56
2022/03/02 11:07:22;;;;;;;8.27;6.57;;;10.20;45.30;;;;;;4992004;28;20030;-54
2022/03/02 11:09:51;;;;;;;7.18;6.35;;;10.30;45.40;;;;;;4996675;28;20038;-53
2022/03/02 11:12:20;;;;;;;8.18;6.85;;;10.30;45.50;;;;;;4995272;28;20073;-55
2022/03/02 11:15:00;;;;;;;8.63;6.75;;;10.30;45.20;;;;;;4992337;28;20521;-56
2022/03/02 11:17:26;;;;;;;9.73;6.90;;;10.40;44.90;;;;;;4985879;28;20097;-55
2022/03/02 11:19:56;;;;;;;9.15;7.32;;;10.50;45.40;;;;;;4996172;28;20078;-55
2022/03/02 11:22:26;;;;;;;7.65;6.57;;;10.50;45.00;;;;;;4993565;28;20038;-56
2022/03/02 11:24:58;;;;;;;10.23;7.05;;;10.60;44.60;;;;;;4995440;28;20046;-56
2022/03/02 11:27:27;;;;;;;8.75;7.18;;;10.70;44.30;;;;;;5002496;28;20108;-56
2022/03/02 11:30:21;;;;;;;8.77;6.90;;;10.70;44.30;;;;;;5003973;28;20096;-56
2022/03/02 11:32:48;;;;;;;7.22;6.20;;;10.80;43.30;;;;;;4990199;28;20050;-56
2022/03/02 11:35:20;;;;;;;7.55;6.75;;;10.90;43.90;;;;;;4991852;28;20096;-56
2022/03/02 11:37:57;;;;;;;9.95;5.90;;;10.90;43.10;;;;;;4990881;28;20057;-56
2022/03/02 11:40:39;;;;;;;7.38;6.57;;;11.00;43.30;;;;;;5002449;28;20053;-56
2022/03/02 11:43:18;;;;;;;8.75;6.70;;;11.10;42.80;;;;;;5003251;28;20034;-57
2022/03/02 11:45:56;;;;;;;8.10;5.97;;;11.10;42.80;;;;;;4999459;28;20346;-55
2022/03/02 11:48:28;;;;;;;8.00;7.18;;;11.20;43.20;;;;;;4996934;28;20034;-57
2022/03/02 11:51:08;;;;;;;7.22;6.40;;;11.30;43.70;;;;;;5001106;28;20073;-56
2022/03/02 11:53:37;;;;;;;9.05;6.75;;;11.40;43.00;;;;;;4997862;28;20417;-57
2022/03/02 11:56:05;;;;;;;10.07;6.57;;;11.40;42.90;;;;;;5002546;28;20082;-57
2022/03/02 11:58:52;;;;;;;10.98;6.75;;;11.50;42.80;;;;;;5004560;28;20046;-55
2022/03/02 12:01:46;;;;;;;6.90;6.03;;;11.50;41.70;;;;;;5003372;28;20046;-55
2022/03/02 12:04:32;;;;;;;7.00;6.28;;;11.60;42.30;;;;;;5003026;28;20033;-55
2022/03/02 12:07:05;;;;;;;8.00;6.50;;;11.60;42.20;;;;;;4984646;28;20118;-56
2022/03/02 12:09:38;;;;;;;8.23;6.30;;;11.70;41.70;;;;;;5005514;28;20122;-56
2022/03/02 12:12:11;;;;;;;8.10;6.55;;;11.70;41.70;;;;;;4986068;28;20035;-56
2022/03/02 12:15:01;;;;;;;11.30;7.38;;;11.70;41.40;;;;;;5003258;28;20042;-56
2022/03/02 12:17:33;;;;;;;8.85;6.40;;;11.70;41.00;;;;;;5000782;28;20038;-52
2022/03/02 12:20:05;;;;;;;11.40;6.47;;;11.80;41.80;;;;;;4993174;28;20057;-55
2022/03/02 12:22:41;;;;;;;8.25;6.78;;;11.80;41.90;;;;;;4995945;28;20505;-56
2022/03/02 12:25:12;;;;;;;7.95;6.32;;;11.90;41.70;;;;;;4994035;28;20493;-56
2022/03/02 12:27:40;;;;;;;8.50;6.57;;;11.90;43.00;;;;;;4994769;28;20042;-54
2022/03/02 12:30:10;;;;;;;8.20;6.80;;;12.00;42.50;;;;;;4997745;28;20040;-56
2022/03/02 12:32:40;;;;;;;8.98;7.40;;;12.00;42.20;;;;;;4993774;28;20042;-55
2022/03/02 12:35:10;;;;;;;9.38;7.03;;;12.10;41.90;;;;;;5001567;28;20046;-55
2022/03/02 12:37:38;;;;;;;8.18;6.35;;;12.10;42.00;;;;;;5002183;28;20093;-56
2022/03/02 12:40:09;;;;;;;7.90;6.82;;;12.10;42.00;;;;;;5000162;28;20038;-56
2022/03/02 12:42:41;;;;;;;7.10;6.35;;;12.20;41.70;;;;;;4981810;28;20489;-56
2022/03/02 12:45:09;;;;;;;9.93;6.97;;;12.30;41.30;;;;;;5009469;28;20084;-55
2022/03/02 12:47:36;;;;;;;10.63;6.88;;;12.30;41.90;;;;;;5002775;28;20506;-55
2022/03/02 12:50:10;;;;;;;7.22;6.45;;;12.40;41.90;;;;;;4979990;28;20046;-56
2022/03/02 12:52:38;;;;;;;10.48;7.18;;;12.40;41.90;;;;;;5000344;28;20092;-54
2022/03/02 12:55:07;;;;;;;8.48;5.88;;;12.50;41.70;;;;;;4986711;28;20096;-56
2022/03/02 12:57:34;;;;;;;8.23;6.40;;;12.60;41.10;;;;;;4991272;28;20130;-56
2022/03/02 13:00:14;;;;;;;8.43;6.10;;;12.60;41.30;;;;;;4995610;28;20670;-56
2022/03/02 13:02:42;;;;;;;8.73;6.82;;;12.60;40.60;;;;;;4991353;28;20104;-56